createdAt,value
2017-05-25T00:01:10.942Z,3.08
2017-05-25T00:03:39.263Z,2.62
2017-05-25T00:06:07.594Z,3.17
2017-05-25T00:08:35.873Z,3.47
2017-05-25T00:11:04.180Z,3.88
2017-05-25T00:13:32.467Z,3.18
2017-05-25T00:16:00.759Z,4.05
2017-05-25T00:18:29.074Z,3.15
2017-05-25T00:20:57.362Z,2.72
2017-05-25T00:23:25.677Z,2.68
2017-05-25T00:25:53.974Z,3.32
2017-05-25T00:28:22.278Z,3.22
2017-05-25T00:30:50.591Z,3.50
2017-05-25T00:33:18.878Z,2.72
2017-05-25T00:35:47.195Z,2.97
2017-05-25T00:38:15.494Z,2.47
2017-05-25T00:40:43.786Z,2.67
2017-05-25T00:43:12.099Z,3.08
2017-05-25T00:45:40.403Z,3.28
2017-05-25T00:48:08.722Z,2.97
2017-05-25T00:50:37.025Z,3.12
2017-05-25T00:53:05.328Z,2.80
2017-05-25T00:55:33.642Z,3.02
2017-05-25T00:58:01.951Z,3.25
2017-05-25T01:00:30.271Z,3.13
2017-05-25T01:02:58.566Z,2.90
2017-05-25T01:05:26.855Z,4.05
2017-05-25T01:07:55.166Z,3.20
2017-05-25T01:10:23.462Z,3.32
2017-05-25T01:12:51.782Z,3.38
2017-05-25T01:15:20.070Z,2.97
2017-05-25T01:17:48.369Z,2.55
2017-05-25T01:20:16.686Z,2.53
2017-05-25T01:22:44.986Z,2.55
2017-05-25T01:25:13.296Z,2.70
2017-05-25T01:27:41.594Z,2.68
2017-05-25T01:30:09.890Z,2.50
2017-05-25T01:32:38.202Z,2.93
2017-05-25T01:35:06.506Z,3.15
2017-05-25T01:37:34.826Z,2.53
2017-05-25T01:40:03.121Z,2.97
2017-05-25T01:42:31.410Z,2.70
2017-05-25T01:44:59.722Z,2.90
2017-05-25T01:47:28.019Z,2.43
2017-05-25T01:49:56.334Z,2.90
2017-05-25T01:52:24.628Z,3.12
2017-05-25T01:54:52.923Z,2.83
2017-05-25T01:57:21.237Z,2.95
2017-05-25T01:59:49.530Z,2.70
2017-05-25T02:02:17.833Z,3.25
2017-05-25T02:04:46.130Z,2.65
2017-05-25T02:07:14.420Z,2.78
2017-05-25T02:09:43.614Z,3.37
2017-05-25T02:12:13.144Z,2.60
2017-05-25T02:14:41.454Z,2.53
2017-05-25T02:17:09.745Z,2.70
2017-05-25T02:19:38.043Z,2.85
2017-05-25T02:22:06.363Z,3.00
2017-05-25T02:24:34.654Z,3.13
2017-05-25T02:27:02.977Z,2.77
2017-05-25T02:29:31.275Z,2.67
2017-05-25T02:31:59.571Z,3.05
2017-05-25T02:34:27.885Z,2.92
2017-05-25T02:36:56.182Z,3.28
2017-05-25T02:39:24.507Z,2.90
2017-05-25T02:41:52.809Z,3.20
2017-05-25T02:44:21.831Z,3.50
2017-05-25T02:46:50.146Z,3.42
2017-05-25T02:49:18.435Z,3.33
2017-05-25T02:51:46.761Z,3.37
2017-05-25T02:54:15.059Z,3.15
2017-05-25T02:56:43.351Z,3.28
2017-05-25T02:59:11.658Z,3.60
2017-05-25T03:01:39.949Z,3.03
2017-05-25T03:04:08.271Z,3.52
2017-05-25T03:06:36.571Z,3.33
2017-05-25T03:09:04.863Z,3.40
2017-05-25T03:11:33.182Z,2.48
2017-05-25T03:14:01.470Z,4.30
2017-05-25T03:16:29.785Z,3.45
2017-05-25T03:18:58.070Z,2.87
2017-05-25T03:21:26.368Z,3.30
2017-05-25T03:23:54.686Z,2.95
2017-05-25T03:26:22.978Z,2.73
2017-05-25T03:28:51.308Z,4.25
2017-05-25T03:31:19.606Z,2.97
2017-05-25T03:33:47.895Z,3.05
2017-05-25T03:36:16.206Z,3.33
2017-05-25T03:38:44.504Z,4.27
2017-05-25T03:41:12.810Z,3.77
2017-05-25T03:43:41.099Z,3.43
2017-05-25T03:46:09.394Z,3.53
2017-05-25T03:48:37.716Z,4.68
2017-05-25T03:51:06.002Z,3.22
2017-05-25T03:53:34.321Z,3.82
2017-05-25T03:56:02.618Z,4.25
2017-05-25T03:58:30.915Z,3.87
2017-05-25T04:00:59.229Z,3.92
2017-05-25T04:03:27.519Z,3.88
2017-05-25T04:05:55.835Z,4.17
2017-05-25T04:08:24.130Z,3.90
2017-05-25T04:10:52.425Z,3.63
2017-05-25T04:13:20.742Z,3.68
2017-05-25T04:15:49.030Z,3.92
2017-05-25T04:18:17.343Z,3.85
2017-05-25T04:20:45.646Z,3.95
2017-05-25T04:23:13.933Z,3.62
2017-05-25T04:25:42.247Z,3.42
2017-05-25T04:28:10.550Z,3.35
2017-05-25T04:30:38.862Z,2.97
2017-05-25T04:33:07.154Z,3.07
2017-05-25T04:35:35.448Z,3.32
2017-05-25T04:38:03.764Z,3.47
2017-05-25T04:40:32.066Z,3.55
2017-05-25T04:43:00.385Z,3.17
2017-05-25T04:45:28.690Z,3.53
2017-05-25T04:47:57.008Z,3.92
2017-05-25T04:50:25.318Z,3.03
2017-05-25T04:52:53.615Z,3.20
2017-05-25T04:55:21.942Z,3.35
2017-05-25T04:57:50.242Z,3.23
2017-05-25T05:00:18.545Z,3.10
2017-05-25T05:02:46.855Z,2.97
2017-05-25T05:05:15.152Z,2.87
2017-05-25T05:07:43.474Z,3.68
2017-05-25T05:10:11.810Z,2.98
2017-05-25T05:12:40.114Z,3.38
2017-05-25T05:15:08.437Z,3.14
2017-05-25T05:17:36.729Z,3.26
2017-05-25T05:20:05.046Z,3.38
2017-05-25T05:22:33.362Z,3.90
2017-05-25T05:25:01.678Z,3.54
2017-05-25T05:27:29.974Z,3.40
2017-05-25T05:29:58.268Z,3.62
2017-05-25T05:32:26.578Z,2.94
2017-05-25T05:34:54.876Z,3.30
2017-05-25T05:37:23.204Z,2.94
2017-05-25T05:39:51.502Z,2.64
2017-05-25T05:42:19.805Z,2.54
2017-05-25T05:44:48.119Z,3.00
2017-05-25T05:47:16.415Z,3.08
2017-05-25T05:49:44.734Z,2.84
2017-05-25T05:52:13.039Z,2.82
2017-05-25T05:54:41.342Z,2.70
2017-05-25T05:57:09.665Z,3.40
2017-05-25T05:59:37.962Z,2.38
2017-05-25T06:02:06.360Z,1.98
2017-05-25T06:04:34.654Z,2.34
2017-05-25T06:07:02.951Z,2.40
2017-05-25T06:09:31.266Z,2.50
2017-05-25T06:11:59.570Z,2.32
2017-05-25T06:14:27.897Z,2.28
2017-05-25T06:16:56.335Z,2.80
2017-05-25T06:19:24.659Z,2.68
2017-05-25T06:21:52.991Z,2.66
2017-05-25T06:24:21.736Z,2.72
2017-05-25T06:26:50.057Z,2.34
2017-05-25T06:29:18.393Z,2.92
2017-05-25T06:31:46.702Z,2.70
2017-05-25T06:34:15.018Z,2.78
2017-05-25T06:36:43.323Z,2.30
2017-05-25T06:39:11.630Z,2.67
2017-05-25T06:41:39.955Z,2.90
2017-05-25T06:44:08.263Z,2.38
2017-05-25T06:46:36.591Z,2.53
2017-05-25T06:49:04.886Z,1.95
2017-05-25T06:51:33.171Z,2.60
2017-05-25T06:54:01.517Z,2.20
2017-05-25T06:56:33.157Z,2.68
2017-05-25T06:59:01.542Z,2.38
2017-05-25T07:01:29.865Z,2.90
2017-05-25T07:03:58.244Z,3.08
2017-05-25T07:06:26.568Z,2.95
2017-05-25T07:08:54.871Z,2.90
2017-05-25T07:11:23.199Z,3.08
2017-05-25T07:13:51.506Z,3.04
2017-05-25T07:16:19.825Z,4.32
2017-05-25T07:18:51.779Z,4.00
2017-05-25T07:21:20.086Z,3.42
2017-05-25T07:23:48.402Z,3.50
2017-05-25T07:26:16.708Z,3.45
2017-05-25T07:28:45.012Z,3.53
2017-05-25T07:31:13.330Z,3.12
2017-05-25T07:33:41.630Z,2.72
2017-05-25T07:36:09.950Z,1.90
2017-05-25T07:38:38.254Z,2.52
2017-05-25T07:41:06.557Z,2.73
2017-05-25T07:43:34.986Z,2.65
2017-05-25T07:46:03.305Z,2.07
2017-05-25T07:48:31.642Z,5.37
2017-05-25T07:50:59.951Z,2.14
2017-05-25T07:53:28.265Z,2.35
2017-05-25T07:55:56.620Z,1.92
2017-05-25T07:58:24.918Z,2.33
2017-05-25T08:00:53.276Z,2.38
2017-05-25T08:03:21.582Z,2.10
2017-05-25T08:05:49.886Z,2.22
2017-05-25T08:08:18.207Z,2.10
2017-05-25T08:10:46.515Z,2.93
2017-05-25T08:13:14.856Z,1.60
2017-05-25T08:15:43.158Z,2.25
2017-05-25T08:18:11.477Z,1.80
2017-05-25T08:20:39.793Z,1.44
2017-05-25T08:23:08.108Z,1.40
2017-05-25T08:25:36.434Z,2.00
2017-05-25T08:28:04.726Z,2.06
2017-05-25T08:30:33.018Z,2.38
2017-05-25T08:33:01.338Z,2.18
2017-05-25T08:35:29.665Z,2.20
2017-05-25T08:37:57.987Z,2.00
2017-05-25T08:40:26.314Z,2.34
2017-05-25T08:42:54.609Z,2.04
2017-05-25T08:45:22.931Z,1.82
2017-05-25T08:47:51.231Z,2.38
2017-05-25T08:50:19.532Z,1.62
2017-05-25T08:52:47.850Z,1.94
2017-05-25T08:55:16.155Z,2.30
2017-05-25T08:57:44.474Z,2.12
2017-05-25T09:00:12.770Z,2.56
2017-05-25T09:02:41.073Z,2.02
2017-05-25T09:05:09.438Z,2.28
2017-05-25T09:07:37.735Z,1.88
2017-05-25T09:10:06.058Z,1.86
2017-05-25T09:12:34.357Z,2.46
2017-05-25T09:15:02.662Z,2.08
2017-05-25T09:17:30.207Z,2.44
2017-05-25T09:19:58.506Z,2.36
2017-05-25T09:22:26.818Z,2.44
2017-05-25T09:24:55.108Z,2.42
2017-05-25T09:27:23.410Z,2.22
2017-05-25T09:29:55.347Z,2.36
2017-05-25T09:32:23.668Z,2.84
2017-05-25T09:34:51.982Z,2.62
2017-05-25T09:37:20.283Z,2.34
2017-05-25T09:39:48.582Z,2.22
2017-05-25T09:42:16.895Z,2.54
2017-05-25T09:44:45.190Z,2.20
2017-05-25T09:47:13.527Z,1.82
2017-05-25T09:49:41.826Z,2.46
2017-05-25T09:52:10.226Z,2.04
2017-05-25T09:54:38.546Z,2.50
2017-05-25T09:57:06.847Z,2.26
2017-05-25T09:59:35.174Z,2.00
2017-05-25T10:02:03.476Z,2.14
2017-05-25T10:04:31.779Z,1.66
2017-05-25T10:07:00.109Z,1.28
2017-05-25T10:09:28.413Z,1.12
2017-05-25T10:11:57.694Z,1.90
2017-05-25T10:14:25.999Z,1.40
2017-05-25T10:16:54.299Z,1.46
2017-05-25T10:19:22.775Z,1.72
2017-05-25T10:21:51.110Z,1.10
2017-05-25T10:24:19.520Z,1.62
2017-05-25T10:26:48.164Z,1.14
2017-05-25T10:29:16.505Z,2.00
2017-05-25T10:31:44.849Z,1.88
2017-05-25T10:34:12.458Z,1.86
2017-05-25T10:36:40.813Z,1.88
2017-05-25T10:39:09.143Z,2.18
2017-05-25T10:41:37.530Z,2.08
2017-05-25T10:44:05.866Z,1.68
2017-05-25T10:46:34.250Z,1.50
2017-05-25T10:49:02.609Z,1.82
2017-05-25T10:51:30.930Z,1.25
2017-05-25T10:53:59.290Z,1.58
2017-05-25T10:56:27.653Z,1.60
2017-05-25T10:58:55.992Z,1.30
2017-05-25T11:01:24.371Z,1.32
2017-05-25T11:03:52.735Z,1.78
2017-05-25T11:06:21.113Z,1.34
2017-05-25T11:08:49.577Z,1.70
2017-05-25T11:11:18.005Z,1.30
2017-05-25T11:13:46.331Z,1.92
2017-05-25T11:16:14.634Z,1.80
2017-05-25T11:18:42.973Z,1.60
2017-05-25T11:21:11.298Z,1.68
2017-05-25T11:23:39.611Z,1.68
2017-05-25T11:26:07.930Z,1.24
2017-05-25T11:28:36.279Z,1.80
2017-05-25T11:31:03.810Z,1.58
2017-05-25T11:33:32.146Z,1.56
2017-05-25T11:36:00.451Z,1.88
2017-05-25T11:38:28.782Z,1.48
2017-05-25T11:40:57.103Z,1.66
2017-05-25T11:43:25.411Z,1.96
2017-05-25T11:45:53.744Z,1.60
2017-05-25T11:48:22.049Z,1.52
2017-05-25T11:50:50.395Z,1.50
2017-05-25T11:53:18.707Z,1.18
2017-05-25T11:55:47.026Z,1.70
2017-05-25T11:58:15.374Z,1.38
2017-05-25T12:00:43.887Z,1.58
2017-05-25T12:03:12.212Z,1.34
2017-05-25T12:05:40.905Z,1.30
2017-05-25T12:08:10.872Z,1.40
2017-05-25T12:10:39.238Z,1.34
2017-05-25T12:13:07.554Z,1.92
2017-05-25T12:15:35.874Z,1.50
2017-05-25T12:18:04.231Z,1.76
2017-05-25T12:20:32.537Z,1.52
2017-05-25T12:23:00.942Z,1.70
2017-05-25T12:25:29.242Z,1.34
2017-05-25T12:27:57.617Z,1.56
2017-05-25T12:30:25.990Z,1.46
2017-05-25T12:32:54.490Z,1.10
2017-05-25T12:35:22.820Z,1.62
2017-05-25T12:37:51.116Z,1.70
2017-05-25T12:40:19.421Z,1.76
2017-05-25T12:42:47.802Z,1.52
2017-05-25T12:45:16.135Z,1.26
2017-05-25T12:47:44.463Z,1.86
2017-05-25T12:50:12.778Z,2.18
2017-05-25T12:52:41.079Z,1.50
2017-05-25T12:55:09.401Z,1.44
2017-05-25T12:57:37.732Z,1.32
2017-05-25T13:00:06.054Z,1.60
2017-05-25T13:02:34.379Z,1.60
2017-05-25T13:05:02.691Z,1.56
2017-05-25T13:07:31.044Z,1.62
2017-05-25T13:09:59.338Z,1.50
2017-05-25T13:12:27.650Z,1.66
2017-05-25T13:14:55.962Z,1.82
2017-05-25T13:17:24.280Z,1.34
2017-05-25T13:19:52.611Z,1.30
2017-05-25T13:22:20.916Z,1.40
2017-05-25T13:24:49.225Z,1.88
2017-05-25T13:27:16.782Z,1.40
2017-05-25T13:29:45.104Z,1.22
2017-05-25T13:32:13.431Z,1.32
2017-05-25T13:34:41.754Z,1.58
2017-05-25T13:37:10.067Z,1.36
2017-05-25T13:39:39.274Z,1.18
2017-05-25T13:42:07.587Z,1.34
2017-05-25T13:44:35.906Z,1.62
2017-05-25T13:47:04.216Z,1.60
2017-05-25T13:49:32.539Z,1.38
2017-05-25T13:52:00.834Z,1.44
2017-05-25T13:54:29.143Z,1.72
2017-05-25T13:56:57.483Z,1.56
2017-05-25T13:59:25.837Z,1.80
2017-05-25T14:01:54.173Z,1.30
2017-05-25T14:04:22.501Z,1.34
2017-05-25T14:06:50.809Z,1.80
2017-05-25T14:09:19.155Z,1.60
2017-05-25T14:11:47.999Z,1.68
2017-05-25T14:14:16.346Z,1.84
2017-05-25T14:16:44.667Z,1.84
2017-05-25T14:19:12.985Z,1.28
2017-05-25T14:21:41.315Z,1.42
2017-05-25T14:24:09.630Z,1.80
2017-05-25T14:26:37.942Z,1.46
2017-05-25T14:29:06.242Z,1.48
2017-05-25T14:31:34.542Z,1.50
2017-05-25T14:34:02.870Z,1.50
2017-05-25T14:36:31.183Z,1.10
2017-05-25T14:38:59.519Z,1.42
2017-05-25T14:41:27.814Z,1.36
2017-05-25T14:43:56.171Z,1.30
2017-05-25T14:46:24.488Z,1.18
2017-05-25T14:48:52.779Z,1.54
2017-05-25T14:51:21.118Z,1.48
2017-05-25T14:53:49.410Z,1.74
2017-05-25T14:56:17.726Z,1.60
2017-05-25T14:58:46.072Z,1.74
2017-05-25T15:01:14.384Z,1.48
2017-05-25T15:03:42.708Z,1.36
2017-05-25T15:06:11.023Z,1.32
2017-05-25T15:08:39.334Z,1.00
2017-05-25T15:11:07.663Z,1.36
2017-05-25T15:13:36.068Z,1.20
2017-05-25T15:16:04.402Z,1.30
2017-05-25T15:18:32.718Z,1.32
2017-05-25T15:21:01.020Z,1.34
2017-05-25T15:23:29.338Z,1.12
2017-05-25T15:25:57.654Z,1.20
2017-05-25T15:28:25.974Z,1.60
2017-05-25T15:30:54.278Z,1.46
2017-05-25T15:33:22.629Z,1.78
2017-05-25T15:35:50.960Z,1.38
2017-05-25T15:38:19.280Z,1.60
2017-05-25T15:40:47.594Z,1.50
2017-05-25T15:43:15.940Z,0.94
2017-05-25T15:45:44.239Z,1.34
2017-05-25T15:48:12.546Z,1.10
2017-05-25T15:50:40.862Z,1.46
2017-05-25T15:53:09.159Z,1.16
2017-05-25T15:55:37.481Z,1.24
2017-05-25T15:58:05.801Z,1.30
2017-05-25T16:00:34.130Z,1.30
2017-05-25T16:03:02.435Z,1.34
2017-05-25T16:05:30.755Z,1.38
2017-05-25T16:07:59.055Z,1.28
2017-05-25T16:10:27.407Z,1.76
2017-05-25T16:12:55.697Z,1.60
2017-05-25T16:15:24.013Z,1.44
2017-05-25T16:17:52.354Z,1.52
2017-05-25T16:20:20.654Z,1.44
2017-05-25T16:22:48.982Z,1.34
2017-05-25T16:25:17.277Z,1.16
2017-05-25T16:27:45.595Z,1.42
2017-05-25T16:30:13.897Z,1.32
2017-05-25T16:32:42.212Z,1.10
2017-05-25T16:35:10.510Z,1.34
2017-05-25T16:37:38.847Z,1.48
2017-05-25T16:40:07.151Z,1.52
2017-05-25T16:42:35.470Z,1.76
2017-05-25T16:45:03.798Z,1.30
2017-05-25T16:47:32.578Z,1.44
2017-05-25T16:50:00.903Z,1.20
2017-05-25T16:52:29.209Z,1.56
2017-05-25T16:54:57.534Z,2.04
2017-05-25T16:57:25.847Z,2.28
2017-05-25T16:59:54.169Z,2.00
2017-05-25T17:02:22.475Z,1.30
2017-05-25T17:04:50.836Z,1.40
2017-05-25T17:07:19.134Z,1.60
2017-05-25T17:09:47.437Z,1.30
2017-05-25T17:12:15.758Z,1.34
2017-05-25T17:14:44.074Z,1.36
2017-05-25T17:17:12.402Z,1.58
2017-05-25T17:19:40.713Z,1.20
2017-05-25T17:22:09.039Z,1.42
2017-05-25T17:24:37.330Z,1.66
2017-05-25T17:27:05.685Z,1.58
2017-05-25T17:29:33.989Z,1.20
2017-05-25T17:32:02.288Z,1.28
2017-05-25T17:34:30.610Z,1.48
2017-05-25T17:36:58.926Z,1.38
2017-05-25T17:39:27.252Z,1.35
2017-05-25T17:41:55.563Z,1.45
2017-05-25T17:44:23.895Z,1.28
2017-05-25T17:46:52.190Z,1.60
2017-05-25T17:49:20.527Z,1.52
2017-05-25T17:51:48.842Z,1.62
2017-05-25T17:54:17.155Z,1.30
2017-05-25T17:56:45.493Z,1.10
2017-05-25T17:59:13.932Z,1.42
2017-05-25T18:01:42.263Z,1.47
2017-05-25T18:04:10.562Z,1.32
2017-05-25T18:06:38.921Z,1.33
2017-05-25T18:09:07.241Z,1.43
2017-05-25T18:11:35.570Z,1.45
2017-05-25T18:14:03.869Z,1.46
2017-05-25T18:16:32.222Z,1.22
2017-05-25T18:19:00.529Z,1.18
2017-05-25T18:21:28.862Z,1.20
2017-05-25T18:23:57.191Z,1.52
2017-05-25T18:26:25.535Z,1.40
2017-05-25T18:28:53.863Z,2.05
2017-05-25T18:31:22.165Z,1.82
2017-05-25T18:33:50.495Z,1.70
2017-05-25T18:36:19.162Z,1.32
2017-05-25T18:38:47.489Z,1.38
2017-05-25T18:41:15.807Z,1.45
2017-05-25T18:43:44.147Z,1.37
2017-05-25T18:46:12.450Z,1.45
2017-05-25T18:48:40.775Z,1.60
2017-05-25T18:51:09.103Z,1.22
2017-05-25T18:53:37.418Z,1.45
2017-05-25T18:56:05.752Z,1.30
2017-05-25T18:58:34.054Z,1.20
2017-05-25T19:01:02.378Z,1.45
2017-05-25T19:03:30.678Z,1.57
2017-05-25T19:06:02.139Z,1.12
2017-05-25T19:08:30.440Z,1.18
2017-05-25T19:10:58.786Z,1.33
2017-05-25T19:13:27.081Z,1.48
2017-05-25T19:15:55.384Z,1.62
2017-05-25T19:18:23.707Z,1.33
2017-05-25T19:20:52.004Z,1.27
2017-05-25T19:23:20.326Z,1.55
2017-05-25T19:25:48.621Z,1.43
2017-05-25T19:28:16.941Z,1.35
2017-05-25T19:30:45.240Z,1.30
2017-05-25T19:33:13.599Z,1.25
2017-05-25T19:35:41.916Z,1.52
2017-05-25T19:38:10.222Z,1.68
2017-05-25T19:40:38.538Z,1.43
2017-05-25T19:43:06.830Z,1.40
2017-05-25T19:45:35.151Z,3.38
2017-05-25T19:48:03.455Z,1.65
2017-05-25T19:50:31.782Z,2.28
2017-05-25T19:53:00.081Z,1.70
2017-05-25T19:55:28.426Z,1.65
2017-05-25T19:57:58.480Z,1.50
2017-05-25T20:00:26.802Z,1.50
2017-05-25T20:02:55.098Z,1.50
2017-05-25T20:05:23.429Z,1.60
2017-05-25T20:07:51.786Z,1.60
2017-05-25T20:10:20.108Z,2.05
2017-05-25T20:12:48.429Z,2.28
2017-05-25T20:15:16.730Z,2.48
2017-05-25T20:17:45.060Z,2.10
2017-05-25T20:20:13.361Z,2.22
2017-05-25T20:22:41.746Z,3.12
2017-05-25T20:25:10.062Z,2.35
2017-05-25T20:27:38.370Z,2.48
2017-05-25T20:30:06.702Z,2.40
2017-05-25T20:32:34.998Z,2.52
2017-05-25T20:35:03.328Z,2.27
2017-05-25T20:37:31.632Z,2.23
2017-05-25T20:39:59.955Z,2.22
2017-05-25T20:42:28.258Z,2.50
2017-05-25T20:44:56.673Z,3.07
2017-05-25T20:47:24.967Z,2.90
2017-05-25T20:49:53.291Z,3.42
2017-05-25T20:52:21.598Z,2.88
2017-05-25T20:54:49.937Z,2.43
2017-05-25T20:57:18.263Z,3.45
2017-05-25T20:59:46.558Z,2.93
2017-05-25T21:02:14.878Z,3.00
2017-05-25T21:04:43.183Z,3.00
2017-05-25T21:07:11.495Z,2.82
2017-05-25T21:09:39.801Z,3.28
2017-05-25T21:12:08.140Z,3.52
2017-05-25T21:14:36.446Z,3.45
2017-05-25T21:17:04.778Z,3.35
2017-05-25T21:19:33.070Z,3.50
2017-05-25T21:22:01.417Z,3.15
2017-05-25T21:24:29.718Z,3.43
2017-05-25T21:26:58.024Z,3.45
2017-05-25T21:29:26.359Z,3.12
2017-05-25T21:31:54.670Z,4.18
2017-05-25T21:34:22.997Z,3.67
2017-05-25T21:36:51.298Z,3.37
2017-05-25T21:39:19.625Z,3.32
2017-05-25T21:41:47.962Z,3.30
2017-05-25T21:44:16.278Z,2.93
2017-05-25T21:46:44.721Z,3.78
2017-05-25T21:49:13.019Z,3.20
2017-05-25T21:51:41.323Z,3.20
2017-05-25T21:54:09.707Z,3.38
2017-05-25T21:56:38.008Z,3.55
2017-05-25T21:59:06.299Z,3.20
2017-05-25T22:01:34.618Z,4.38
2017-05-25T22:04:02.147Z,4.22
2017-05-25T22:06:30.455Z,3.32
2017-05-25T22:08:58.792Z,3.33
2017-05-25T22:11:27.098Z,3.70
2017-05-25T22:13:55.418Z,2.83
2017-05-25T22:16:23.736Z,3.42
2017-05-25T22:18:52.042Z,3.47
2017-05-25T22:21:20.370Z,3.80
2017-05-25T22:23:48.697Z,3.33
2017-05-25T22:26:17.018Z,3.97
2017-05-25T22:28:45.327Z,4.05
2017-05-25T22:31:13.659Z,3.20
2017-05-25T22:33:41.959Z,3.52
2017-05-25T22:36:10.271Z,3.33
2017-05-25T22:38:38.606Z,3.05
2017-05-25T22:41:06.906Z,3.65
2017-05-25T22:43:35.219Z,3.10
2017-05-25T22:46:03.570Z,3.75
2017-05-25T22:48:31.871Z,3.80
2017-05-25T22:51:00.527Z,3.65
2017-05-25T22:53:28.855Z,3.92
2017-05-25T22:55:57.154Z,3.90
2017-05-25T22:58:25.450Z,3.70
2017-05-25T23:00:53.775Z,3.92
2017-05-25T23:03:22.086Z,3.75
2017-05-25T23:05:50.386Z,4.07
2017-05-25T23:08:18.702Z,3.67
2017-05-25T23:10:47.003Z,4.30
2017-05-25T23:13:15.362Z,3.48
2017-05-25T23:15:43.687Z,3.88
2017-05-25T23:18:11.992Z,3.52
2017-05-25T23:20:40.301Z,3.72
2017-05-25T23:23:08.640Z,3.08
2017-05-25T23:25:36.942Z,2.95
2017-05-25T23:28:05.244Z,3.47
2017-05-25T23:30:33.577Z,3.80
2017-05-25T23:33:01.886Z,3.52
2017-05-25T23:35:30.191Z,3.40
2017-05-25T23:37:58.518Z,3.92
2017-05-25T23:40:26.833Z,3.57
2017-05-25T23:42:55.163Z,2.90
2017-05-25T23:45:23.499Z,2.93
2017-05-25T23:47:51.797Z,3.63
2017-05-25T23:50:20.103Z,3.38
2017-05-25T23:52:48.440Z,3.15
2017-05-25T23:55:16.760Z,3.27
2017-05-25T23:57:45.065Z,3.08
